QFA439 YSSY-YMML
Flight info
| Callsign | QFA439 |
|---|---|
| Flight time | 1h 7m |
| Altitude | 36000 |
| Route | MARUB7/34R WOL H65 LEECE Q29 ML |
| Aircraft | A21N/M-SADE2E3GHIJ3J4J5LM1ORWYZ/LB1D1 |
Departure
| Time | 2026-05-04 06:11 |
|---|---|
| Airport | Sydney Kingsford Smith International Airport (YSSY) |
Arrival
| Time | 2026-05-04 07:18 |
|---|---|
| Airport | Melbourne Airport (YMML) |
| Time | Latitude | Longitude | Altitude | Speed | Heading |
|---|---|---|---|---|---|
| 2026-05-04 05:39 | -33.93163 | 151.17968 | 36 ft | 0 kts | 190° |
| 2026-05-04 05:54 | -33.93091 | 151.18004 | 35 ft | 0 kts | 279° |
| 2026-05-04 06:00 | -33.93087 | 151.17972 | 35 ft | 7 kts | 279° |
| 2026-05-04 06:00 | -33.93077 | 151.17908 | 35 ft | 9 kts | 280° |
| 2026-05-04 06:00 | -33.93066 | 151.17826 | 35 ft | 11 kts | 280° |
| 2026-05-04 06:01 | -33.93043 | 151.17729 | 35 ft | 13 kts | 298° |
| 2026-05-04 06:01 | -33.93007 | 151.17618 | 35 ft | 15 kts | 276° |
| 2026-05-04 06:03 | -33.93860 | 151.17751 | 35 ft | 20 kts | 128° |
| 2026-05-04 06:03 | -33.93991 | 151.17800 | 34 ft | 21 kts | 167° |
| 2026-05-04 06:05 | -33.94979 | 151.18000 | 36 ft | 19 kts | 167° |
| 2026-05-04 06:05 | -33.95077 | 151.18222 | 36 ft | 22 kts | 79° |
| 2026-05-04 06:05 | -33.95047 | 151.18405 | 36 ft | 23 kts | 78° |
| 2026-05-04 06:06 | -33.95128 | 151.18554 | 36 ft | 25 kts | 139° |
| 2026-05-04 06:06 | -33.95261 | 151.18690 | 35 ft | 26 kts | 153° |
| 2026-05-04 06:06 | -33.95442 | 151.18751 | 35 ft | 28 kts | 168° |
| 2026-05-04 06:06 | -33.95636 | 151.18802 | 35 ft | 29 kts | 168° |
| 2026-05-04 06:07 | -33.95836 | 151.18854 | 35 ft | 29 kts | 167° |
| 2026-05-04 06:07 | -33.96039 | 151.18906 | 35 ft | 30 kts | 168° |
| 2026-05-04 06:07 | -33.96234 | 151.18956 | 35 ft | 28 kts | 167° |
| 2026-05-04 06:07 | -33.96425 | 151.19006 | 35 ft | 27 kts | 167° |
| 2026-05-04 06:08 | -33.96612 | 151.19055 | 35 ft | 28 kts | 169° |
| 2026-05-04 06:08 | -33.96759 | 151.19066 | 35 ft | 20 kts | 190° |
| 2026-05-04 06:08 | -33.96902 | 151.19084 | 35 ft | 22 kts | 166° |
| 2026-05-04 06:08 | -33.97057 | 151.19126 | 36 ft | 23 kts | 167° |
| 2026-05-04 06:09 | -33.97130 | 151.19208 | 35 ft | 15 kts | 94° |
| 2026-05-04 06:09 | -33.97108 | 151.19333 | 31 ft | 16 kts | 75° |
| 2026-05-04 06:11 | -33.93935 | 151.18727 | 1131 ft | 149 kts | 11° |
| 2026-05-04 06:11 | -33.93016 | 151.19455 | 1501 ft | 177 kts | 51° |
| 2026-05-04 06:13 | -33.99393 | 151.29275 | 6055 ft | 283 kts | 207° |
| 2026-05-04 06:14 | -34.08283 | 151.19788 | 10574 ft | 321 kts | 221° |
| 2026-05-04 06:14 | -34.09529 | 151.18690 | 10785 ft | 336 kts | 221° |
| 2026-05-04 06:15 | -34.12128 | 151.16447 | 11356 ft | 356 kts | 220° |
| 2026-05-04 06:15 | -34.13507 | 151.15270 | 11827 ft | 360 kts | 220° |
| 2026-05-04 06:15 | -34.15571 | 151.13514 | 12612 ft | 364 kts | 220° |
| 2026-05-04 06:15 | -34.17630 | 151.11764 | 13408 ft | 368 kts | 220° |
| 2026-05-04 06:16 | -34.19741 | 151.09969 | 14162 ft | 371 kts | 220° |
| 2026-05-04 06:16 | -34.21873 | 151.08153 | 14839 ft | 376 kts | 220° |
| 2026-05-04 06:16 | -34.24024 | 151.06320 | 15519 ft | 380 kts | 220° |
| 2026-05-04 06:16 | -34.26171 | 151.04491 | 16185 ft | 384 kts | 220° |
| 2026-05-04 06:17 | -34.28374 | 151.02612 | 16853 ft | 389 kts | 220° |
| 2026-05-04 06:17 | -34.30609 | 151.00707 | 17545 ft | 393 kts | 220° |
| 2026-05-04 06:17 | -34.32853 | 150.98789 | 18221 ft | 397 kts | 220° |
| 2026-05-04 06:17 | -34.35123 | 150.96853 | 18810 ft | 401 kts | 220° |
| 2026-05-04 06:18 | -34.37393 | 150.94916 | 19414 ft | 403 kts | 221° |
| 2026-05-04 06:18 | -34.39695 | 150.92944 | 20036 ft | 406 kts | 221° |
| 2026-05-04 06:18 | -34.42010 | 150.90957 | 20633 ft | 408 kts | 221° |
| 2026-05-04 06:20 | -34.57805 | 150.75913 | 24408 ft | 412 kts | 240° |
| 2026-05-04 06:20 | -34.59502 | 150.73085 | 24843 ft | 414 kts | 241° |
| 2026-05-04 06:21 | -34.66359 | 150.61604 | 26475 ft | 427 kts | 240° |
| 2026-05-04 06:21 | -34.68129 | 150.58668 | 26881 ft | 429 kts | 240° |
| 2026-05-04 06:22 | -34.69880 | 150.55755 | 27266 ft | 432 kts | 240° |
| 2026-05-04 06:22 | -34.71668 | 150.52781 | 27661 ft | 435 kts | 240° |
| 2026-05-04 06:25 | -34.95235 | 150.13310 | 32823 ft | 431 kts | 242° |
| 2026-05-04 06:25 | -34.96973 | 150.10394 | 33273 ft | 427 kts | 242° |
| 2026-05-04 06:26 | -34.98712 | 150.07457 | 33624 ft | 426 kts | 242° |
| 2026-05-04 06:26 | -35.00443 | 150.04526 | 33958 ft | 425 kts | 242° |
| 2026-05-04 06:26 | -35.02176 | 150.01593 | 34259 ft | 423 kts | 243° |
| 2026-05-04 06:26 | -35.03874 | 149.98719 | 34542 ft | 421 kts | 243° |
| 2026-05-04 06:27 | -35.10677 | 149.87171 | 35563 ft | 417 kts | 243° |
| 2026-05-04 06:28 | -35.12375 | 149.84288 | 35781 ft | 417 kts | 243° |
| 2026-05-04 06:28 | -35.14075 | 149.81394 | 35920 ft | 417 kts | 243° |
| 2026-05-04 06:28 | -35.17454 | 149.75638 | 36027 ft | 418 kts | 243° |
| 2026-05-04 06:29 | -35.20836 | 149.69872 | 36003 ft | 418 kts | 243° |
| 2026-05-04 06:29 | -35.24230 | 149.64085 | 35994 ft | 418 kts | 243° |
| 2026-05-04 06:30 | -35.27621 | 149.58279 | 36018 ft | 418 kts | 243° |
| 2026-05-04 06:30 | -35.30992 | 149.52498 | 36017 ft | 420 kts | 243° |
| 2026-05-04 06:31 | -35.34396 | 149.46661 | 36033 ft | 420 kts | 243° |
| 2026-05-04 06:31 | -35.37774 | 149.40863 | 36031 ft | 420 kts | 243° |
| 2026-05-04 06:33 | -35.51337 | 149.17452 | 36027 ft | 421 kts | 243° |
| 2026-05-04 06:34 | -35.54715 | 149.11615 | 36015 ft | 421 kts | 243° |
| 2026-05-04 06:34 | -35.58101 | 149.05730 | 35997 ft | 422 kts | 244° |
| 2026-05-04 06:36 | -35.71590 | 148.82186 | 36005 ft | 421 kts | 244° |
| 2026-05-04 06:37 | -35.74981 | 148.76246 | 36000 ft | 423 kts | 244° |
| 2026-05-04 06:37 | -35.78342 | 148.70344 | 35995 ft | 421 kts | 244° |
| 2026-05-04 06:38 | -35.81724 | 148.64424 | 36001 ft | 421 kts | 244° |
| 2026-05-04 06:40 | -35.95154 | 148.40665 | 36006 ft | 422 kts | 245° |
| 2026-05-04 06:40 | -35.98484 | 148.34742 | 36019 ft | 421 kts | 245° |
| 2026-05-04 06:41 | -36.01835 | 148.28759 | 36018 ft | 424 kts | 244° |
| 2026-05-04 06:41 | -36.05207 | 148.22742 | 36020 ft | 425 kts | 245° |
| 2026-05-04 06:42 | -36.08557 | 148.16752 | 36045 ft | 425 kts | 245° |
| 2026-05-04 06:44 | -36.22010 | 147.92658 | 36021 ft | 425 kts | 245° |
| 2026-05-04 06:44 | -36.25352 | 147.86662 | 36026 ft | 423 kts | 245° |
| 2026-05-04 06:45 | -36.28703 | 147.80633 | 36021 ft | 425 kts | 245° |
| 2026-05-04 06:45 | -36.32039 | 147.74614 | 36020 ft | 426 kts | 245° |
| 2026-05-04 06:46 | -36.35402 | 147.68532 | 36009 ft | 425 kts | 245° |
| 2026-05-04 06:46 | -36.38735 | 147.62491 | 36025 ft | 425 kts | 245° |
| 2026-05-04 06:48 | -36.52088 | 147.38161 | 36005 ft | 427 kts | 245° |
| 2026-05-04 06:50 | -36.65452 | 147.13645 | 36004 ft | 428 kts | 245° |
| 2026-05-04 06:51 | -36.68780 | 147.07516 | 36015 ft | 428 kts | 244° |
| 2026-05-04 06:51 | -36.72096 | 147.01384 | 35998 ft | 427 kts | 245° |
| 2026-05-04 06:52 | -36.75381 | 146.95298 | 35996 ft | 428 kts | 244° |
| 2026-05-04 06:52 | -36.78674 | 146.89188 | 36000 ft | 428 kts | 245° |
| 2026-05-04 06:53 | -36.81995 | 146.83011 | 36025 ft | 429 kts | 244° |
| 2026-05-04 06:53 | -36.85313 | 146.76849 | 35994 ft | 428 kts | 244° |
| 2026-05-04 06:54 | -36.88629 | 146.70669 | 35991 ft | 428 kts | 244° |
| 2026-05-04 06:54 | -36.91883 | 146.64594 | 35996 ft | 428 kts | 244° |
| 2026-05-04 06:55 | -36.95175 | 146.58433 | 35998 ft | 429 kts | 245° |
| 2026-05-04 06:55 | -36.96830 | 146.55333 | 35732 ft | 424 kts | 245° |
| 2026-05-04 06:55 | -36.98445 | 146.52309 | 35157 ft | 420 kts | 245° |
| 2026-05-04 06:56 | -37.00072 | 146.49261 | 34422 ft | 421 kts | 245° |
| 2026-05-04 06:57 | -37.11561 | 146.27654 | 28928 ft | 428 kts | 246° |
| 2026-05-04 06:58 | -37.13203 | 146.24548 | 28172 ft | 426 kts | 245° |
| 2026-05-04 06:58 | -37.14820 | 146.21491 | 27475 ft | 423 kts | 245° |
| 2026-05-04 06:58 | -37.16448 | 146.18412 | 26770 ft | 420 kts | 245° |
| 2026-05-04 06:58 | -37.18046 | 146.15389 | 26096 ft | 417 kts | 245° |
| 2026-05-04 06:59 | -37.19646 | 146.12360 | 25441 ft | 414 kts | 245° |
| 2026-05-04 06:59 | -37.21231 | 146.09356 | 24790 ft | 412 kts | 245° |
| 2026-05-04 06:59 | -37.22791 | 146.06386 | 24117 ft | 408 kts | 245° |
| 2026-05-04 06:59 | -37.23829 | 146.04408 | 23720 ft | 406 kts | 245° |
| 2026-05-04 07:01 | -37.34403 | 145.84234 | 18931 ft | 386 kts | 242° |
| 2026-05-04 07:01 | -37.35867 | 145.81446 | 18352 ft | 384 kts | 242° |
| 2026-05-04 07:02 | -37.37336 | 145.78643 | 17763 ft | 382 kts | 242° |
| 2026-05-04 07:02 | -37.38795 | 145.75856 | 17204 ft | 380 kts | 241° |
| 2026-05-04 07:02 | -37.40248 | 145.73080 | 16606 ft | 379 kts | 241° |
| 2026-05-04 07:02 | -37.41698 | 145.70305 | 16051 ft | 377 kts | 241° |
| 2026-05-04 07:03 | -37.43135 | 145.67558 | 15518 ft | 374 kts | 241° |
| 2026-05-04 07:03 | -37.44557 | 145.64826 | 14999 ft | 371 kts | 241° |
| 2026-05-04 07:03 | -37.46017 | 145.62195 | 14487 ft | 369 kts | 238° |
| 2026-05-04 07:03 | -37.47528 | 145.59598 | 13957 ft | 363 kts | 238° |
| 2026-05-04 07:04 | -37.49012 | 145.57058 | 13417 ft | 356 kts | 238° |
| 2026-05-04 07:04 | -37.50461 | 145.54564 | 12858 ft | 349 kts | 238° |
| 2026-05-04 07:04 | -37.51879 | 145.52131 | 12370 ft | 347 kts | 238° |
| 2026-05-04 07:04 | -37.53306 | 145.49682 | 11891 ft | 346 kts | 238° |
| 2026-05-04 07:05 | -37.54730 | 145.47230 | 11391 ft | 345 kts | 239° |
| 2026-05-04 07:05 | -37.56129 | 145.44821 | 11058 ft | 334 kts | 239° |
| 2026-05-04 07:05 | -37.57473 | 145.42507 | 10852 ft | 319 kts | 239° |
| 2026-05-04 07:05 | -37.58736 | 145.40327 | 10683 ft | 304 kts | 240° |
| 2026-05-04 07:06 | -37.61124 | 145.36203 | 10281 ft | 279 kts | 240° |
| 2026-05-04 07:06 | -37.62257 | 145.34234 | 9907 ft | 276 kts | 241° |
| 2026-05-04 07:06 | -37.63375 | 145.32292 | 9472 ft | 271 kts | 241° |
| 2026-05-04 07:07 | -37.64472 | 145.30387 | 9058 ft | 266 kts | 241° |
| 2026-05-04 07:08 | -37.71973 | 145.17338 | 6714 ft | 262 kts | 242° |
| 2026-05-04 07:09 | -37.73033 | 145.15494 | 6374 ft | 262 kts | 242° |
| 2026-05-04 07:09 | -37.74105 | 145.13631 | 6084 ft | 257 kts | 242° |
| 2026-05-04 07:09 | -37.75139 | 145.11837 | 5911 ft | 246 kts | 242° |
| 2026-05-04 07:09 | -37.76127 | 145.10117 | 5701 ft | 239 kts | 243° |
| 2026-05-04 07:10 | -37.77098 | 145.08422 | 5421 ft | 237 kts | 243° |
| 2026-05-04 07:10 | -37.78061 | 145.06737 | 5114 ft | 235 kts | 243° |
| 2026-05-04 07:12 | -37.82519 | 144.94478 | 3235 ft | 201 kts | 267° |
| 2026-05-04 07:12 | -37.82738 | 144.92775 | 3074 ft | 189 kts | 269° |
| 2026-05-04 07:12 | -37.82922 | 144.91247 | 3127 ft | 161 kts | 270° |
| 2026-05-04 07:12 | -37.83082 | 144.89865 | 3115 ft | 162 kts | 270° |
| 2026-05-04 07:13 | -37.83235 | 144.88458 | 2781 ft | 158 kts | 278° |
| 2026-05-04 07:13 | -37.82805 | 144.87251 | 2540 ft | 153 kts | 316° |
| 2026-05-04 07:13 | -37.81900 | 144.86586 | 2513 ft | 155 kts | 341° |
| 2026-05-04 07:14 | -37.77702 | 144.85810 | 2296 ft | 147 kts | 347° |
| 2026-05-04 07:14 | -37.76733 | 144.85630 | 2099 ft | 140 kts | 347° |
| 2026-05-04 07:15 | -37.75765 | 144.85449 | 1887 ft | 140 kts | 348° |
| 2026-05-04 07:15 | -37.74797 | 144.85264 | 1669 ft | 139 kts | 347° |
| 2026-05-04 07:15 | -37.73841 | 144.85081 | 1443 ft | 140 kts | 349° |
| 2026-05-04 07:15 | -37.72921 | 144.84916 | 1264 ft | 120 kts | 351° |
| 2026-05-04 07:16 | -37.72117 | 144.84762 | 1093 ft | 115 kts | 352° |
| 2026-05-04 07:16 | -37.71311 | 144.84592 | 919 ft | 119 kts | 353° |
| 2026-05-04 07:16 | -37.70497 | 144.84444 | 773 ft | 119 kts | 353° |
| 2026-05-04 07:16 | -37.69720 | 144.84305 | 632 ft | 113 kts | 354° |
| 2026-05-04 07:17 | -37.68922 | 144.84154 | 470 ft | 118 kts | 354° |
| 2026-05-04 07:17 | -37.68113 | 144.84007 | 371 ft | 112 kts | 354° |
| 2026-05-04 07:17 | -37.67500 | 144.83900 | 372 ft | 61 kts | 351° |
| 2026-05-04 07:17 | -37.67130 | 144.83840 | 388 ft | 50 kts | 356° |
| 2026-05-04 07:18 | -37.66906 | 144.83877 | 395 ft | 19 kts | 20° |
| 2026-05-04 07:18 | -37.66805 | 144.83929 | 398 ft | 17 kts | 24° |
| 2026-05-04 07:18 | -37.66744 | 144.83977 | 396 ft | 10 kts | 48° |
| 2026-05-04 07:18 | -37.66723 | 144.84076 | 400 ft | 14 kts | 80° |
| 2026-05-04 07:19 | -37.66702 | 144.84205 | 401 ft | 16 kts | 79° |
| 2026-05-04 07:19 | -37.66683 | 144.84360 | 403 ft | 19 kts | 81° |
| 2026-05-04 07:19 | -37.66663 | 144.84536 | 404 ft | 20 kts | 82° |
| 2026-05-04 07:19 | -37.66644 | 144.84715 | 407 ft | 18 kts | 82° |
| 2026-05-04 07:20 | -37.66554 | 144.84837 | 411 ft | 22 kts | 62° |
| 2026-05-04 07:20 | -37.66533 | 144.84998 | 411 ft | 15 kts | 89° |
| 2026-05-04 07:20 | -37.66590 | 144.85110 | 408 ft | 17 kts | 88° |
| 2026-05-04 07:20 | -37.66573 | 144.85262 | 405 ft | 17 kts | 78° |
| 2026-05-04 07:22 | -37.66672 | 144.85295 | 401 ft | 3 kts | 259° |
| 2026-05-04 07:22 | -37.66674 | 144.85276 | 402 ft | 0 kts | 263° |
| 2026-05-04 07:23 | -37.66674 | 144.85275 | 402 ft | 1 kts | 261° |
| 2026-05-04 07:23 | -37.66676 | 144.85260 | 402 ft | 0 kts | 262° |